sensor_id;sensor_type;location;lat;lon;timestamp;P1;durP1;ratioP1;P2;durP2;ratioP2
2161;SDS011;1087;50.226;8.682;2023-02-13T00:00:04;20.07;;;16.40;;
2161;SDS011;1087;50.226;8.682;2023-02-13T00:02:32;20.60;;;17.43;;
2161;SDS011;1087;50.226;8.682;2023-02-13T00:04:58;17.37;;;15.00;;
2161;SDS011;1087;50.226;8.682;2023-02-13T00:07:23;18.60;;;16.10;;
2161;SDS011;1087;50.226;8.682;2023-02-13T00:09:49;17.70;;;14.37;;
2161;SDS011;1087;50.226;8.682;2023-02-13T00:12:14;13.60;;;10.50;;
2161;SDS011;1087;50.226;8.682;2023-02-13T00:14:40;13.30;;;10.70;;
2161;SDS011;1087;50.226;8.682;2023-02-13T00:17:06;11.70;;;9.57;;
2161;SDS011;1087;50.226;8.682;2023-02-13T00:19:31;14.10;;;11.10;;
2161;SDS011;1087;50.226;8.682;2023-02-13T00:21:57;12.20;;;10.50;;
2161;SDS011;1087;50.226;8.682;2023-02-13T00:24:23;10.93;;;9.83;;
2161;SDS011;1087;50.226;8.682;2023-02-13T00:26:48;12.10;;;8.90;;
2161;SDS011;1087;50.226;8.682;2023-02-13T00:29:14;10.50;;;9.33;;
2161;SDS011;1087;50.226;8.682;2023-02-13T00:31:39;11.40;;;9.80;;
2161;SDS011;1087;50.226;8.682;2023-02-13T00:34:05;12.20;;;9.90;;
2161;SDS011;1087;50.226;8.682;2023-02-13T00:36:31;10.47;;;9.37;;
2161;SDS011;1087;50.226;8.682;2023-02-13T00:38:56;10.90;;;9.13;;
2161;SDS011;1087;50.226;8.682;2023-02-13T00:41:22;11.70;;;10.37;;
2161;SDS011;1087;50.226;8.682;2023-02-13T00:43:48;11.70;;;9.90;;
2161;SDS011;1087;50.226;8.682;2023-02-13T00:46:14;11.80;;;9.63;;
2161;SDS011;1087;50.226;8.682;2023-02-13T00:48:41;11.77;;;9.20;;
2161;SDS011;1087;50.226;8.682;2023-02-13T00:51:06;11.27;;;10.07;;
2161;SDS011;1087;50.226;8.682;2023-02-13T00:53:32;14.20;;;10.73;;
2161;SDS011;1087;50.226;8.682;2023-02-13T00:55:58;11.30;;;9.80;;
2161;SDS011;1087;50.226;8.682;2023-02-13T00:58:24;14.30;;;10.37;;
2161;SDS011;1087;50.226;8.682;2023-02-13T01:00:50;11.60;;;9.77;;
2161;SDS011;1087;50.226;8.682;2023-02-13T01:03:17;13.70;;;11.27;;
2161;SDS011;1087;50.226;8.682;2023-02-13T01:05:43;14.70;;;11.07;;
2161;SDS011;1087;50.226;8.682;2023-02-13T01:08:09;11.80;;;9.67;;
2161;SDS011;1087;50.226;8.682;2023-02-13T01:10:36;12.43;;;10.10;;
2161;SDS011;1087;50.226;8.682;2023-02-13T01:13:02;16.00;;;11.77;;
2161;SDS011;1087;50.226;8.682;2023-02-13T01:15:28;11.93;;;10.63;;
2161;SDS011;1087;50.226;8.682;2023-02-13T01:17:54;12.63;;;10.20;;
2161;SDS011;1087;50.226;8.682;2023-02-13T01:20:21;16.47;;;12.60;;
2161;SDS011;1087;50.226;8.682;2023-02-13T01:22:48;14.93;;;11.60;;
2161;SDS011;1087;50.226;8.682;2023-02-13T01:25:15;15.77;;;11.73;;
2161;SDS011;1087;50.226;8.682;2023-02-13T01:27:40;12.77;;;10.50;;
2161;SDS011;1087;50.226;8.682;2023-02-13T01:30:06;12.27;;;10.57;;
2161;SDS011;1087;50.226;8.682;2023-02-13T01:32:37;15.20;;;10.97;;
2161;SDS011;1087;50.226;8.682;2023-02-13T01:35:06;15.87;;;11.67;;
2161;SDS011;1087;50.226;8.682;2023-02-13T01:37:32;13.83;;;10.63;;
2161;SDS011;1087;50.226;8.682;2023-02-13T01:39:58;15.77;;;11.97;;
2161;SDS011;1087;50.226;8.682;2023-02-13T01:42:25;14.83;;;11.80;;
2161;SDS011;1087;50.226;8.682;2023-02-13T01:44:59;14.40;;;11.17;;
2161;SDS011;1087;50.226;8.682;2023-02-13T01:50:31;13.67;;;11.13;;
2161;SDS011;1087;50.226;8.682;2023-02-13T01:53:48;14.80;;;10.90;;
2161;SDS011;1087;50.226;8.682;2023-02-13T01:56:01;14.87;;;11.40;;
2161;SDS011;1087;50.226;8.682;2023-02-13T01:58:48;16.70;;;11.03;;
2161;SDS011;1087;50.226;8.682;2023-02-13T02:01:16;13.93;;;11.60;;
2161;SDS011;1087;50.226;8.682;2023-02-13T02:03:52;16.23;;;13.07;;
2161;SDS011;1087;50.226;8.682;2023-02-13T02:06:28;14.40;;;11.43;;
2161;SDS011;1087;50.226;8.682;2023-02-13T02:09:03;16.57;;;12.93;;
2161;SDS011;1087;50.226;8.682;2023-02-13T02:12:06;15.20;;;11.57;;
2161;SDS011;1087;50.226;8.682;2023-02-13T02:14:34;15.30;;;12.37;;
2161;SDS011;1087;50.226;8.682;2023-02-13T02:17:00;16.00;;;11.90;;
2161;SDS011;1087;50.226;8.682;2023-02-13T02:19:30;17.40;;;13.37;;
2161;SDS011;1087;50.226;8.682;2023-02-13T02:35:49;18.57;;;13.83;;
2161;SDS011;1087;50.226;8.682;2023-02-13T02:38:52;18.40;;;13.70;;
2161;SDS011;1087;50.226;8.682;2023-02-13T02:44:11;19.00;;;13.47;;
2161;SDS011;1087;50.226;8.682;2023-02-13T02:50:25;16.70;;;13.20;;
2161;SDS011;1087;50.226;8.682;2023-02-13T02:53:03;17.40;;;13.20;;
2161;SDS011;1087;50.226;8.682;2023-02-13T02:55:47;18.53;;;14.67;;
2161;SDS011;1087;50.226;8.682;2023-02-13T02:58:29;15.30;;;12.37;;
2161;SDS011;1087;50.226;8.682;2023-02-13T03:01:19;20.60;;;13.63;;
2161;SDS011;1087;50.226;8.682;2023-02-13T03:04:15;15.67;;;13.40;;
2161;SDS011;1087;50.226;8.682;2023-02-13T03:07:21;16.93;;;12.67;;
2161;SDS011;1087;50.226;8.682;2023-02-13T03:09:48;16.87;;;12.83;;
2161;SDS011;1087;50.226;8.682;2023-02-13T03:12:46;18.77;;;15.70;;
2161;SDS011;1087;50.226;8.682;2023-02-13T03:15:35;20.67;;;13.90;;
2161;SDS011;1087;50.226;8.682;2023-02-13T03:18:23;20.50;;;14.40;;
2161;SDS011;1087;50.226;8.682;2023-02-13T03:21:10;16.37;;;13.43;;
2161;SDS011;1087;50.226;8.682;2023-02-13T03:24:13;17.10;;;12.60;;
2161;SDS011;1087;50.226;8.682;2023-02-13T03:29:54;16.90;;;13.37;;
2161;SDS011;1087;50.226;8.682;2023-02-13T03:35:37;16.80;;;13.20;;
2161;SDS011;1087;50.226;8.682;2023-02-13T03:41:24;18.70;;;14.40;;
2161;SDS011;1087;50.226;8.682;2023-02-13T03:43:59;16.30;;;12.70;;
2161;SDS011;1087;50.226;8.682;2023-02-13T03:46:39;19.17;;;13.57;;
2161;SDS011;1087;50.226;8.682;2023-02-13T03:49:11;21.30;;;15.17;;
2161;SDS011;1087;50.226;8.682;2023-02-13T03:52:05;21.93;;;15.83;;
2161;SDS011;1087;50.226;8.682;2023-02-13T03:54:37;19.33;;;14.30;;
2161;SDS011;1087;50.226;8.682;2023-02-13T03:57:28;16.00;;;12.97;;
2161;SDS011;1087;50.226;8.682;2023-02-13T04:00:16;17.50;;;13.70;;
2161;SDS011;1087;50.226;8.682;2023-02-13T04:03:29;18.70;;;14.50;;
2161;SDS011;1087;50.226;8.682;2023-02-13T04:05:43;17.73;;;13.60;;
2161;SDS011;1087;50.226;8.682;2023-02-13T04:08:13;18.77;;;13.30;;
2161;SDS011;1087;50.226;8.682;2023-02-13T04:10:42;17.73;;;15.07;;
2161;SDS011;1087;50.226;8.682;2023-02-13T04:13:26;15.83;;;14.03;;
2161;SDS011;1087;50.226;8.682;2023-02-13T04:16:09;18.03;;;13.47;;
2161;SDS011;1087;50.226;8.682;2023-02-13T04:18:39;18.00;;;13.53;;
2161;SDS011;1087;50.226;8.682;2023-02-13T04:21:07;20.40;;;13.23;;
2161;SDS011;1087;50.226;8.682;2023-02-13T04:23:32;16.80;;;13.20;;
2161;SDS011;1087;50.226;8.682;2023-02-13T04:25:59;16.57;;;13.27;;
2161;SDS011;1087;50.226;8.682;2023-02-13T04:28:27;17.80;;;13.27;;
2161;SDS011;1087;50.226;8.682;2023-02-13T04:30:53;19.77;;;13.17;;
2161;SDS011;1087;50.226;8.682;2023-02-13T04:33:18;21.37;;;14.40;;
2161;SDS011;1087;50.226;8.682;2023-02-13T04:35:44;14.90;;;13.40;;
2161;SDS011;1087;50.226;8.682;2023-02-13T04:38:10;18.60;;;13.63;;
2161;SDS011;1087;50.226;8.682;2023-02-13T04:40:35;16.40;;;14.10;;
2161;SDS011;1087;50.226;8.682;2023-02-13T04:43:00;18.30;;;13.77;;
2161;SDS011;1087;50.226;8.682;2023-02-13T04:45:26;17.90;;;13.07;;
2161;SDS011;1087;50.226;8.682;2023-02-13T04:47:52;17.07;;;12.40;;
2161;SDS011;1087;50.226;8.682;2023-02-13T04:50:19;17.13;;;12.40;;
2161;SDS011;1087;50.226;8.682;2023-02-13T04:52:45;16.27;;;13.40;;
2161;SDS011;1087;50.226;8.682;2023-02-13T04:55:11;20.23;;;14.90;;
2161;SDS011;1087;50.226;8.682;2023-02-13T04:57:37;23.10;;;18.80;;
2161;SDS011;1087;50.226;8.682;2023-02-13T05:00:03;23.63;;;19.40;;
2161;SDS011;1087;50.226;8.682;2023-02-13T05:02:30;21.07;;;17.43;;
2161;SDS011;1087;50.226;8.682;2023-02-13T05:04:56;21.57;;;19.27;;
2161;SDS011;1087;50.226;8.682;2023-02-13T05:07:22;26.57;;;21.30;;
2161;SDS011;1087;50.226;8.682;2023-02-13T05:09:47;22.20;;;19.53;;
2161;SDS011;1087;50.226;8.682;2023-02-13T05:12:13;19.37;;;17.17;;
2161;SDS011;1087;50.226;8.682;2023-02-13T05:14:38;17.07;;;15.20;;
2161;SDS011;1087;50.226;8.682;2023-02-13T05:17:04;18.80;;;15.83;;
2161;SDS011;1087;50.226;8.682;2023-02-13T05:19:29;18.80;;;15.67;;
2161;SDS011;1087;50.226;8.682;2023-02-13T05:21:55;18.70;;;14.50;;
2161;SDS011;1087;50.226;8.682;2023-02-13T05:24:39;20.03;;;14.87;;
2161;SDS011;1087;50.226;8.682;2023-02-13T05:27:04;16.43;;;13.60;;
2161;SDS011;1087;50.226;8.682;2023-02-13T05:29:30;18.77;;;14.73;;
2161;SDS011;1087;50.226;8.682;2023-02-13T05:31:56;20.97;;;16.80;;
2161;SDS011;1087;50.226;8.682;2023-02-13T05:34:24;19.30;;;15.60;;
2161;SDS011;1087;50.226;8.682;2023-02-13T05:36:50;18.70;;;15.77;;
2161;SDS011;1087;50.226;8.682;2023-02-13T05:39:16;24.40;;;17.13;;
2161;SDS011;1087;50.226;8.682;2023-02-13T05:41:42;20.30;;;17.50;;
2161;SDS011;1087;50.226;8.682;2023-02-13T05:44:09;17.03;;;13.50;;
2161;SDS011;1087;50.226;8.682;2023-02-13T05:46:36;21.30;;;14.60;;
2161;SDS011;1087;50.226;8.682;2023-02-13T05:49:02;21.10;;;14.60;;
2161;SDS011;1087;50.226;8.682;2023-02-13T05:51:28;23.97;;;14.60;;
2161;SDS011;1087;50.226;8.682;2023-02-13T05:53:54;15.90;;;12.13;;
2161;SDS011;1087;50.226;8.682;2023-02-13T05:56:20;16.50;;;13.07;;
2161;SDS011;1087;50.226;8.682;2023-02-13T05:58:45;21.93;;;13.00;;
2161;SDS011;1087;50.226;8.682;2023-02-13T06:01:11;14.93;;;11.73;;
2161;SDS011;1087;50.226;8.682;2023-02-13T06:03:37;17.07;;;12.53;;
2161;SDS011;1087;50.226;8.682;2023-02-13T06:06:04;16.27;;;13.20;;
2161;SDS011;1087;50.226;8.682;2023-02-13T06:08:30;13.73;;;11.50;;
2161;SDS011;1087;50.226;8.682;2023-02-13T06:10:55;19.37;;;12.70;;
2161;SDS011;1087;50.226;8.682;2023-02-13T06:13:21;16.37;;;11.57;;
2161;SDS011;1087;50.226;8.682;2023-02-13T06:15:47;19.40;;;13.70;;
2161;SDS011;1087;50.226;8.682;2023-02-13T06:18:12;17.00;;;13.67;;
2161;SDS011;1087;50.226;8.682;2023-02-13T06:20:38;16.50;;;12.27;;
2161;SDS011;1087;50.226;8.682;2023-02-13T06:23:03;13.30;;;11.23;;
2161;SDS011;1087;50.226;8.682;2023-02-13T06:25:29;17.90;;;12.50;;
2161;SDS011;1087;50.226;8.682;2023-02-13T06:27:55;17.07;;;12.10;;
2161;SDS011;1087;50.226;8.682;2023-02-13T06:30:20;17.43;;;14.03;;
2161;SDS011;1087;50.226;8.682;2023-02-13T06:32:46;19.03;;;13.23;;
2161;SDS011;1087;50.226;8.682;2023-02-13T06:35:12;17.90;;;13.13;;
2161;SDS011;1087;50.226;8.682;2023-02-13T06:37:39;16.93;;;12.07;;
2161;SDS011;1087;50.226;8.682;2023-02-13T06:40:05;13.70;;;10.93;;
2161;SDS011;1087;50.226;8.682;2023-02-13T06:42:31;13.77;;;11.30;;
2161;SDS011;1087;50.226;8.682;2023-02-13T06:44:57;18.33;;;12.53;;
2161;SDS011;1087;50.226;8.682;2023-02-13T06:47:23;16.23;;;13.10;;
2161;SDS011;1087;50.226;8.682;2023-02-13T06:49:49;17.33;;;12.20;;
2161;SDS011;1087;50.226;8.682;2023-02-13T06:52:14;15.67;;;12.60;;
2161;SDS011;1087;50.226;8.682;2023-02-13T06:54:40;20.07;;;13.07;;
2161;SDS011;1087;50.226;8.682;2023-02-13T06:57:05;17.50;;;12.90;;
2161;SDS011;1087;50.226;8.682;2023-02-13T06:59:31;18.77;;;13.27;;
2161;SDS011;1087;50.226;8.682;2023-02-13T07:01:56;17.50;;;13.47;;
2161;SDS011;1087;50.226;8.682;2023-02-13T07:04:22;17.93;;;13.00;;
2161;SDS011;1087;50.226;8.682;2023-02-13T07:06:47;17.60;;;12.77;;
2161;SDS011;1087;50.226;8.682;2023-02-13T07:09:13;23.40;;;14.43;;
2161;SDS011;1087;50.226;8.682;2023-02-13T07:11:38;17.50;;;13.97;;
2161;SDS011;1087;50.226;8.682;2023-02-13T07:14:07;21.23;;;14.70;;
2161;SDS011;1087;50.226;8.682;2023-02-13T07:16:33;20.27;;;14.47;;
2161;SDS011;1087;50.226;8.682;2023-02-13T07:18:59;20.13;;;13.47;;
2161;SDS011;1087;50.226;8.682;2023-02-13T07:21:24;21.47;;;15.07;;
2161;SDS011;1087;50.226;8.682;2023-02-13T07:23:50;18.73;;;13.60;;
2161;SDS011;1087;50.226;8.682;2023-02-13T07:26:16;19.10;;;14.77;;
2161;SDS011;1087;50.226;8.682;2023-02-13T07:28:42;16.90;;;13.50;;
2161;SDS011;1087;50.226;8.682;2023-02-13T07:31:07;22.50;;;15.40;;
2161;SDS011;1087;50.226;8.682;2023-02-13T07:33:34;17.70;;;14.20;;
2161;SDS011;1087;50.226;8.682;2023-02-13T07:36:00;20.10;;;13.63;;
2161;SDS011;1087;50.226;8.682;2023-02-13T07:38:27;22.00;;;14.20;;
2161;SDS011;1087;50.226;8.682;2023-02-13T07:41:00;17.20;;;14.00;;
2161;SDS011;1087;50.226;8.682;2023-02-13T07:43:27;18.53;;;13.60;;
2161;SDS011;1087;50.226;8.682;2023-02-13T07:45:53;19.97;;;14.03;;
2161;SDS011;1087;50.226;8.682;2023-02-13T07:48:22;22.00;;;14.90;;
2161;SDS011;1087;50.226;8.682;2023-02-13T07:50:48;19.10;;;13.03;;
2161;SDS011;1087;50.226;8.682;2023-02-13T07:53:13;21.47;;;14.93;;
2161;SDS011;1087;50.226;8.682;2023-02-13T07:55:39;19.13;;;14.30;;
2161;SDS011;1087;50.226;8.682;2023-02-13T07:58:05;18.40;;;13.40;;
2161;SDS011;1087;50.226;8.682;2023-02-13T08:00:30;20.73;;;14.37;;
2161;SDS011;1087;50.226;8.682;2023-02-13T08:02:59;17.53;;;14.50;;
2161;SDS011;1087;50.226;8.682;2023-02-13T08:05:25;20.40;;;14.10;;
2161;SDS011;1087;50.226;8.682;2023-02-13T08:07:51;19.80;;;14.00;;
2161;SDS011;1087;50.226;8.682;2023-02-13T08:10:17;21.13;;;14.90;;
2161;SDS011;1087;50.226;8.682;2023-02-13T08:13:02;19.37;;;14.67;;
2161;SDS011;1087;50.226;8.682;2023-02-13T08:15:28;23.07;;;15.90;;
2161;SDS011;1087;50.226;8.682;2023-02-13T08:17:54;18.30;;;14.03;;
2161;SDS011;1087;50.226;8.682;2023-02-13T08:20:20;20.40;;;15.83;;
2161;SDS011;1087;50.226;8.682;2023-02-13T08:22:45;21.17;;;16.37;;
2161;SDS011;1087;50.226;8.682;2023-02-13T08:25:11;20.73;;;14.90;;
2161;SDS011;1087;50.226;8.682;2023-02-13T08:27:37;16.43;;;13.30;;
2161;SDS011;1087;50.226;8.682;2023-02-13T08:30:03;15.70;;;12.67;;
2161;SDS011;1087;50.226;8.682;2023-02-13T08:32:29;16.90;;;13.40;;
2161;SDS011;1087;50.226;8.682;2023-02-13T08:34:55;18.50;;;13.03;;
2161;SDS011;1087;50.226;8.682;2023-02-13T08:37:20;15.40;;;13.23;;
2161;SDS011;1087;50.226;8.682;2023-02-13T08:39:46;21.53;;;14.77;;
2161;SDS011;1087;50.226;8.682;2023-02-13T08:42:11;22.93;;;15.00;;
2161;SDS011;1087;50.226;8.682;2023-02-13T08:44:37;22.07;;;16.30;;
2161;SDS011;1087;50.226;8.682;2023-02-13T08:47:05;25.57;;;17.57;;
2161;SDS011;1087;50.226;8.682;2023-02-13T08:49:31;25.43;;;16.70;;
2161;SDS011;1087;50.226;8.682;2023-02-13T08:51:57;22.60;;;17.80;;
2161;SDS011;1087;50.226;8.682;2023-02-13T08:54:23;24.80;;;16.60;;
2161;SDS011;1087;50.226;8.682;2023-02-13T08:56:48;23.20;;;16.70;;
2161;SDS011;1087;50.226;8.682;2023-02-13T08:59:14;21.07;;;15.40;;
2161;SDS011;1087;50.226;8.682;2023-02-13T09:01:40;24.80;;;16.17;;
2161;SDS011;1087;50.226;8.682;2023-02-13T09:04:05;24.07;;;16.87;;
2161;SDS011;1087;50.226;8.682;2023-02-13T09:06:31;22.27;;;16.53;;
2161;SDS011;1087;50.226;8.682;2023-02-13T09:08:56;22.93;;;17.93;;
2161;SDS011;1087;50.226;8.682;2023-02-13T09:11:22;25.93;;;19.93;;
2161;SDS011;1087;50.226;8.682;2023-02-13T09:13:48;28.77;;;18.17;;
2161;SDS011;1087;50.226;8.682;2023-02-13T09:16:14;25.37;;;18.13;;
2161;SDS011;1087;50.226;8.682;2023-02-13T09:18:40;23.77;;;16.70;;
2161;SDS011;1087;50.226;8.682;2023-02-13T09:21:06;20.50;;;15.33;;
2161;SDS011;1087;50.226;8.682;2023-02-13T09:23:37;24.97;;;16.60;;
2161;SDS011;1087;50.226;8.682;2023-02-13T09:26:05;20.93;;;15.37;;
2161;SDS011;1087;50.226;8.682;2023-02-13T09:28:33;22.37;;;15.03;;
2161;SDS011;1087;50.226;8.682;2023-02-13T09:31:03;22.40;;;14.77;;
2161;SDS011;1087;50.226;8.682;2023-02-13T09:33:32;16.70;;;12.90;;
2161;SDS011;1087;50.226;8.682;2023-02-13T09:35:57;20.93;;;13.50;;
2161;SDS011;1087;50.226;8.682;2023-02-13T09:38:23;17.70;;;14.43;;
2161;SDS011;1087;50.226;8.682;2023-02-13T09:43:29;18.50;;;13.03;;
2161;SDS011;1087;50.226;8.682;2023-02-13T09:46:16;17.90;;;12.83;;
2161;SDS011;1087;50.226;8.682;2023-02-13T09:48:46;18.70;;;13.57;;
2161;SDS011;1087;50.226;8.682;2023-02-13T09:51:17;15.83;;;12.17;;
2161;SDS011;1087;50.226;8.682;2023-02-13T09:53:49;17.60;;;11.90;;
2161;SDS011;1087;50.226;8.682;2023-02-13T10:02:07;12.83;;;10.70;;
2161;SDS011;1087;50.226;8.682;2023-02-13T10:15:41;14.53;;;11.17;;
2161;SDS011;1087;50.226;8.682;2023-02-13T10:18:15;13.70;;;11.10;;
2161;SDS011;1087;50.226;8.682;2023-02-13T10:20:50;15.07;;;11.40;;
2161;SDS011;1087;50.226;8.682;2023-02-13T10:26:03;14.67;;;11.70;;
2161;SDS011;1087;50.226;8.682;2023-02-13T10:28:39;16.27;;;12.40;;
2161;SDS011;1087;50.226;8.682;2023-02-13T10:31:15;13.10;;;10.93;;
2161;SDS011;1087;50.226;8.682;2023-02-13T10:33:45;13.00;;;11.10;;
2161;SDS011;1087;50.226;8.682;2023-02-13T10:36:18;14.43;;;11.07;;
2161;SDS011;1087;50.226;8.682;2023-02-13T10:41:24;13.00;;;11.70;;
2161;SDS011;1087;50.226;8.682;2023-02-13T10:44:19;14.30;;;11.40;;
2161;SDS011;1087;50.226;8.682;2023-02-13T10:52:25;14.23;;;11.77;;
2161;SDS011;1087;50.226;8.682;2023-02-13T11:03:17;11.57;;;9.97;;
2161;SDS011;1087;50.226;8.682;2023-02-13T11:05:47;11.93;;;9.97;;
2161;SDS011;1087;50.226;8.682;2023-02-13T11:08:24;12.87;;;10.87;;
2161;SDS011;1087;50.226;8.682;2023-02-13T11:11:03;12.40;;;10.60;;
2161;SDS011;1087;50.226;8.682;2023-02-13T11:13:28;11.57;;;10.37;;
2161;SDS011;1087;50.226;8.682;2023-02-13T11:16:01;15.00;;;10.70;;
2161;SDS011;1087;50.226;8.682;2023-02-13T11:18:33;14.23;;;10.53;;
2161;SDS011;1087;50.226;8.682;2023-02-13T11:21:10;14.87;;;11.30;;
2161;SDS011;1087;50.226;8.682;2023-02-13T11:23:43;15.00;;;10.70;;
2161;SDS011;1087;50.226;8.682;2023-02-13T11:26:14;12.90;;;10.43;;
2161;SDS011;1087;50.226;8.682;2023-02-13T11:28:52;14.17;;;10.33;;
2161;SDS011;1087;50.226;8.682;2023-02-13T11:31:24;11.63;;;10.17;;
2161;SDS011;1087;50.226;8.682;2023-02-13T11:33:55;13.70;;;12.27;;
2161;SDS011;1087;50.226;8.682;2023-02-13T11:36:26;12.63;;;11.20;;
2161;SDS011;1087;50.226;8.682;2023-02-13T11:38:59;12.97;;;10.90;;
2161;SDS011;1087;50.226;8.682;2023-02-13T11:41:43;11.63;;;10.43;;
2161;SDS011;1087;50.226;8.682;2023-02-13T11:44:28;14.23;;;11.67;;
2161;SDS011;1087;50.226;8.682;2023-02-13T11:46:57;12.63;;;10.70;;
2161;SDS011;1087;50.226;8.682;2023-02-13T11:49:31;15.10;;;12.40;;
2161;SDS011;1087;50.226;8.682;2023-02-13T11:52:03;12.23;;;10.00;;
2161;SDS011;1087;50.226;8.682;2023-02-13T11:54:42;12.83;;;9.80;;
2161;SDS011;1087;50.226;8.682;2023-02-13T11:57:23;12.17;;;10.43;;
2161;SDS011;1087;50.226;8.682;2023-02-13T11:59:53;13.50;;;10.00;;
2161;SDS011;1087;50.226;8.682;2023-02-13T12:04:53;11.80;;;9.53;;
2161;SDS011;1087;50.226;8.682;2023-02-13T12:07:37;11.60;;;10.40;;
2161;SDS011;1087;50.226;8.682;2023-02-13T12:10:19;14.37;;;10.50;;
2161;SDS011;1087;50.226;8.682;2023-02-13T12:12:52;12.93;;;9.53;;
2161;SDS011;1087;50.226;8.682;2023-02-13T12:15:25;12.23;;;8.80;;
2161;SDS011;1087;50.226;8.682;2023-02-13T12:17:56;11.70;;;9.03;;
2161;SDS011;1087;50.226;8.682;2023-02-13T12:20:29;12.73;;;8.40;;
2161;SDS011;1087;50.226;8.682;2023-02-13T12:25:46;8.57;;;7.67;;
2161;SDS011;1087;50.226;8.682;2023-02-13T12:28:27;12.47;;;8.27;;
2161;SDS011;1087;50.226;8.682;2023-02-13T12:31:18;11.00;;;8.33;;
2161;SDS011;1087;50.226;8.682;2023-02-13T12:42:43;8.10;;;7.30;;
2161;SDS011;1087;50.226;8.682;2023-02-13T12:45:29;8.30;;;7.50;;
2161;SDS011;1087;50.226;8.682;2023-02-13T12:48:09;8.10;;;6.70;;
2161;SDS011;1087;50.226;8.682;2023-02-13T12:50:54;8.83;;;7.93;;
2161;SDS011;1087;50.226;8.682;2023-02-13T12:53:45;8.23;;;7.50;;
2161;SDS011;1087;50.226;8.682;2023-02-13T13:08:14;8.80;;;7.90;;
2161;SDS011;1087;50.226;8.682;2023-02-13T13:11:10;9.57;;;8.10;;
2161;SDS011;1087;50.226;8.682;2023-02-13T13:13:51;8.37;;;7.50;;
2161;SDS011;1087;50.226;8.682;2023-02-13T13:16:45;10.70;;;7.67;;
2161;SDS011;1087;50.226;8.682;2023-02-13T13:19:39;11.47;;;7.73;;
2161;SDS011;1087;50.226;8.682;2023-02-13T13:22:27;7.57;;;6.77;;
2161;SDS011;1087;50.226;8.682;2023-02-13T13:27:48;7.87;;;6.77;;
2161;SDS011;1087;50.226;8.682;2023-02-13T13:33:34;15.30;;;8.40;;
2161;SDS011;1087;50.226;8.682;2023-02-13T13:38:24;7.30;;;6.30;;
2161;SDS011;1087;50.226;8.682;2023-02-13T13:46:30;11.40;;;7.20;;
2161;SDS011;1087;50.226;8.682;2023-02-13T13:52:07;8.13;;;5.13;;
2161;SDS011;1087;50.226;8.682;2023-02-13T13:54:34;6.10;;;5.30;;
2161;SDS011;1087;50.226;8.682;2023-02-13T14:07:25;5.77;;;4.20;;
2161;SDS011;1087;50.226;8.682;2023-02-13T14:09:57;4.73;;;4.33;;
2161;SDS011;1087;50.226;8.682;2023-02-13T14:14:48;4.90;;;4.40;;
2161;SDS011;1087;50.226;8.682;2023-02-13T14:17:14;5.10;;;4.60;;
2161;SDS011;1087;50.226;8.682;2023-02-13T14:19:42;5.83;;;4.57;;
2161;SDS011;1087;50.226;8.682;2023-02-13T14:24:50;6.33;;;5.17;;
2161;SDS011;1087;50.226;8.682;2023-02-13T14:27:24;5.63;;;5.07;;
2161;SDS011;1087;50.226;8.682;2023-02-13T14:29:55;4.97;;;4.47;;
2161;SDS011;1087;50.226;8.682;2023-02-13T14:35:14;4.40;;;4.00;;
2161;SDS011;1087;50.226;8.682;2023-02-13T14:37:46;4.73;;;4.20;;
2161;SDS011;1087;50.226;8.682;2023-02-13T14:42:45;4.43;;;3.97;;
2161;SDS011;1087;50.226;8.682;2023-02-13T14:45:16;5.40;;;3.80;;
2161;SDS011;1087;50.226;8.682;2023-02-13T14:47:48;6.57;;;4.57;;
2161;SDS011;1087;50.226;8.682;2023-02-13T14:53:17;5.10;;;4.30;;
2161;SDS011;1087;50.226;8.682;2023-02-13T14:55:49;5.80;;;5.10;;
2161;SDS011;1087;50.226;8.682;2023-02-13T14:58:27;5.50;;;5.00;;
2161;SDS011;1087;50.226;8.682;2023-02-13T15:03:46;6.20;;;5.03;;
2161;SDS011;1087;50.226;8.682;2023-02-13T15:06:21;5.83;;;5.23;;
2161;SDS011;1087;50.226;8.682;2023-02-13T15:08:53;6.90;;;5.83;;
2161;SDS011;1087;50.226;8.682;2023-02-13T15:11:33;4.93;;;4.53;;
2161;SDS011;1087;50.226;8.682;2023-02-13T15:16:50;6.50;;;5.60;;
2161;SDS011;1087;50.226;8.682;2023-02-13T15:19:19;5.63;;;5.13;;
2161;SDS011;1087;50.226;8.682;2023-02-13T15:21:47;6.20;;;5.30;;
2161;SDS011;1087;50.226;8.682;2023-02-13T15:24:23;8.17;;;6.23;;
2161;SDS011;1087;50.226;8.682;2023-02-13T15:26:49;6.90;;;5.93;;
2161;SDS011;1087;50.226;8.682;2023-02-13T15:29:18;5.70;;;5.17;;
2161;SDS011;1087;50.226;8.682;2023-02-13T15:31:44;7.00;;;6.10;;
2161;SDS011;1087;50.226;8.682;2023-02-13T15:34:20;6.73;;;5.60;;
2161;SDS011;1087;50.226;8.682;2023-02-13T15:36:54;7.37;;;6.00;;
2161;SDS011;1087;50.226;8.682;2023-02-13T15:39:27;6.23;;;5.53;;
2161;SDS011;1087;50.226;8.682;2023-02-13T15:41:55;6.43;;;5.43;;
2161;SDS011;1087;50.226;8.682;2023-02-13T15:47:02;7.07;;;6.37;;
2161;SDS011;1087;50.226;8.682;2023-02-13T15:49:36;7.90;;;5.83;;
2161;SDS011;1087;50.226;8.682;2023-02-13T15:52:04;8.43;;;6.57;;
2161;SDS011;1087;50.226;8.682;2023-02-13T15:54:33;6.20;;;5.60;;
2161;SDS011;1087;50.226;8.682;2023-02-13T15:57:00;10.43;;;6.33;;
2161;SDS011;1087;50.226;8.682;2023-02-13T15:59:36;8.83;;;6.13;;
2161;SDS011;1087;50.226;8.682;2023-02-13T16:02:10;6.67;;;5.97;;
2161;SDS011;1087;50.226;8.682;2023-02-13T16:04:55;6.97;;;6.27;;
2161;SDS011;1087;50.226;8.682;2023-02-13T16:07:22;7.57;;;6.00;;
2161;SDS011;1087;50.226;8.682;2023-02-13T16:09:48;9.03;;;7.10;;
2161;SDS011;1087;50.226;8.682;2023-02-13T16:12:21;8.00;;;7.20;;
2161;SDS011;1087;50.226;8.682;2023-02-13T16:14:53;7.93;;;6.67;;
2161;SDS011;1087;50.226;8.682;2023-02-13T16:17:36;11.57;;;7.00;;
2161;SDS011;1087;50.226;8.682;2023-02-13T16:20:13;8.57;;;7.67;;
2161;SDS011;1087;50.226;8.682;2023-02-13T16:22:53;8.13;;;7.10;;
2161;SDS011;1087;50.226;8.682;2023-02-13T16:25:29;8.47;;;7.57;;
2161;SDS011;1087;50.226;8.682;2023-02-13T16:28:23;9.13;;;8.20;;
2161;SDS011;1087;50.226;8.682;2023-02-13T16:30:59;10.27;;;8.20;;
2161;SDS011;1087;50.226;8.682;2023-02-13T16:36:00;9.00;;;7.50;;
2161;SDS011;1087;50.226;8.682;2023-02-13T16:38:48;11.60;;;10.30;;
2161;SDS011;1087;50.226;8.682;2023-02-13T16:43:52;9.80;;;8.73;;
2161;SDS011;1087;50.226;8.682;2023-02-13T16:46:27;12.30;;;10.03;;
2161;SDS011;1087;50.226;8.682;2023-02-13T16:56:56;9.30;;;8.30;;
2161;SDS011;1087;50.226;8.682;2023-02-13T16:59:50;10.00;;;7.80;;
2161;SDS011;1087;50.226;8.682;2023-02-13T17:02:20;11.77;;;9.03;;
2161;SDS011;1087;50.226;8.682;2023-02-13T17:04:53;12.50;;;9.03;;
2161;SDS011;1087;50.226;8.682;2023-02-13T17:07:35;10.33;;;7.70;;
2161;SDS011;1087;50.226;8.682;2023-02-13T17:10:26;10.10;;;7.83;;
2161;SDS011;1087;50.226;8.682;2023-02-13T17:12:59;14.20;;;8.60;;
2161;SDS011;1087;50.226;8.682;2023-02-13T17:15:47;11.43;;;9.67;;
2161;SDS011;1087;50.226;8.682;2023-02-13T17:18:13;10.80;;;9.70;;
2161;SDS011;1087;50.226;8.682;2023-02-13T17:20:39;14.80;;;10.50;;
2161;SDS011;1087;50.226;8.682;2023-02-13T17:23:06;14.17;;;10.30;;
2161;SDS011;1087;50.226;8.682;2023-02-13T17:25:38;17.60;;;12.47;;
2161;SDS011;1087;50.226;8.682;2023-02-13T17:28:11;26.33;;;20.23;;
2161;SDS011;1087;50.226;8.682;2023-02-13T17:30:38;24.90;;;17.50;;
2161;SDS011;1087;50.226;8.682;2023-02-13T17:33:05;30.67;;;22.37;;
2161;SDS011;1087;50.226;8.682;2023-02-13T17:35:34;20.50;;;16.80;;
2161;SDS011;1087;50.226;8.682;2023-02-13T17:38:00;21.13;;;15.43;;
2161;SDS011;1087;50.226;8.682;2023-02-13T17:40:26;19.13;;;12.67;;
2161;SDS011;1087;50.226;8.682;2023-02-13T17:42:54;16.10;;;12.00;;
2161;SDS011;1087;50.226;8.682;2023-02-13T17:45:22;12.50;;;11.20;;
2161;SDS011;1087;50.226;8.682;2023-02-13T17:47:49;12.90;;;9.80;;
2161;SDS011;1087;50.226;8.682;2023-02-13T17:50:15;13.00;;;9.90;;
2161;SDS011;1087;50.226;8.682;2023-02-13T17:52:41;11.10;;;8.63;;
2161;SDS011;1087;50.226;8.682;2023-02-13T17:55:21;10.73;;;8.80;;